createdAt,value
2019-01-23T00:00:45.655Z,0
2019-01-23T00:01:45.644Z,0
2019-01-23T00:02:45.379Z,0
2019-01-23T00:03:45.374Z,0
2019-01-23T00:04:45.377Z,0
2019-01-23T00:05:45.355Z,0
2019-01-23T00:06:45.571Z,0
2019-01-23T00:07:45.318Z,0
2019-01-23T00:08:45.299Z,0
2019-01-23T00:09:45.287Z,0
2019-01-23T00:10:45.036Z,0
2019-01-23T00:11:45.261Z,0
2019-01-23T00:12:45.249Z,0
2019-01-23T00:13:45.508Z,0
2019-01-23T00:14:45.229Z,0
2019-01-23T00:15:45.470Z,0
2019-01-23T00:16:45.198Z,0
2019-01-23T00:17:45.181Z,0
2019-01-23T00:18:44.931Z,0
2019-01-23T00:19:45.181Z,0
2019-01-23T00:20:45.170Z,0
2019-01-23T00:21:45.149Z,0
2019-01-23T00:22:45.377Z,0
2019-01-23T00:23:45.364Z,0
2019-01-23T00:24:45.107Z,0
2019-01-23T00:25:45.109Z,0
2019-01-23T00:26:45.325Z,0
2019-01-23T00:27:45.328Z,0
2019-01-23T00:28:49.525Z,0
2019-01-23T00:29:45.051Z,0
2019-01-23T00:30:45.033Z,0
2019-01-23T00:31:44.773Z,0
2019-01-23T00:32:45.018Z,0
2019-01-23T00:33:45.261Z,0
2019-01-23T00:34:44.978Z,0
2019-01-23T00:35:44.730Z,0
2019-01-23T00:36:45.228Z,0
2019-01-23T00:37:45.215Z,0
2019-01-23T00:38:44.946Z,0
2019-01-23T00:39:45.181Z,0
2019-01-23T00:40:44.919Z,0
2019-01-23T00:41:45.176Z,0
2019-01-23T00:42:44.647Z,0
2019-01-23T00:43:44.651Z,0
2019-01-23T00:44:44.863Z,0
2019-01-23T00:45:44.623Z,0
2019-01-23T00:46:44.844Z,0
2019-01-23T00:47:44.339Z,0
2019-01-23T00:48:44.825Z,0
2019-01-23T00:49:45.051Z,0
2019-01-23T00:50:44.783Z,0
2019-01-23T00:51:44.766Z,0
2019-01-23T00:52:44.756Z,0
2019-01-23T00:53:44.520Z,0
2019-01-23T00:54:44.492Z,0
2019-01-23T00:55:44.237Z,0
2019-01-23T00:56:44.478Z,0
2019-01-23T00:57:44.698Z,0
2019-01-23T00:58:51.490Z,0
2019-01-23T00:59:44.181Z,0
2019-01-23T01:00:44.665Z,0
2019-01-23T01:01:44.394Z,0
2019-01-23T01:02:44.866Z,0
2019-01-23T01:03:44.629Z,0
2019-01-23T01:04:44.871Z,0
2019-01-23T01:05:44.602Z,0
2019-01-23T01:06:44.329Z,0
2019-01-23T01:07:44.341Z,0
2019-01-23T01:08:44.810Z,0
2019-01-23T01:09:44.571Z,0
2019-01-23T01:10:44.038Z,0
2019-01-23T01:11:44.039Z,0
2019-01-23T01:12:44.511Z,0
2019-01-23T01:13:44.241Z,0
2019-01-23T01:14:44.515Z,0
2019-01-23T01:15:44.232Z,0
2019-01-23T01:16:44.212Z,0
2019-01-23T01:17:44.690Z,0
2019-01-23T01:18:44.181Z,0
2019-01-23T01:19:44.155Z,0
2019-01-23T01:20:43.913Z,0
2019-01-23T01:21:43.889Z,0
2019-01-23T01:22:44.379Z,0
2019-01-23T01:23:44.617Z,0
2019-01-23T01:24:44.365Z,0
2019-01-23T01:25:44.101Z,0
2019-01-23T01:26:44.588Z,0
2019-01-23T01:27:44.071Z,0
2019-01-23T01:28:44.302Z,0
2019-01-23T01:29:44.531Z,0
2019-01-23T01:30:44.548Z,0
2019-01-23T01:31:44.002Z,0
2019-01-23T01:32:44.263Z,0
2019-01-23T01:33:44.495Z,0
2019-01-23T01:34:44.485Z,0
2019-01-23T01:35:44.035Z,0
2019-01-23T01:36:43.941Z,0
2019-01-23T01:37:43.930Z,0
2019-01-23T01:38:44.418Z,0
2019-01-23T01:39:44.968Z,0
2019-01-23T01:40:43.644Z,0
2019-01-23T01:41:44.143Z,0
2019-01-23T01:42:44.374Z,0
2019-01-23T01:43:44.104Z,0
2019-01-23T01:44:44.097Z,0
2019-01-23T01:45:43.853Z,0
2019-01-23T01:46:44.067Z,0
2019-01-23T01:47:44.055Z,0
2019-01-23T01:48:43.804Z,0
2019-01-23T01:49:44.281Z,0
2019-01-23T01:50:44.043Z,0
2019-01-23T01:51:44.269Z,0
2019-01-23T01:52:43.769Z,0
2019-01-23T01:53:43.985Z,0
2019-01-23T01:54:43.957Z,0
2019-01-23T01:55:43.469Z,0
2019-01-23T01:56:43.939Z,0
2019-01-23T01:57:43.946Z,0
2019-01-23T01:58:44.163Z,0
2019-01-23T01:59:44.732Z,0
2019-01-23T02:00:43.887Z,0
2019-01-23T02:01:43.618Z,0
2019-01-23T02:02:43.612Z,0
2019-01-23T02:03:43.863Z,0
2019-01-23T02:04:43.866Z,0
2019-01-23T02:05:43.832Z,0
2019-01-23T02:06:43.809Z,0
2019-01-23T02:07:43.616Z,0
2019-01-23T02:08:44.041Z,0
2019-01-23T02:09:48.005Z,0
2019-01-23T02:10:43.506Z,0
2019-01-23T02:11:44.018Z,0
2019-01-23T02:12:43.737Z,0
2019-01-23T02:13:43.726Z,0
2019-01-23T02:14:43.959Z,0
2019-01-23T02:15:43.686Z,0
2019-01-23T02:16:43.679Z,0
2019-01-23T02:17:43.660Z,0
2019-01-23T02:18:43.415Z,0
2019-01-23T02:19:43.646Z,0
2019-01-23T02:20:43.377Z,0
2019-01-23T02:21:43.379Z,0
2019-01-23T02:22:43.345Z,0
2019-01-23T02:23:43.831Z,0
2019-01-23T02:24:43.314Z,0
2019-01-23T02:25:43.804Z,0
2019-01-23T02:26:43.780Z,0
2019-01-23T02:27:43.534Z,0
2019-01-23T02:28:43.548Z,0
2019-01-23T02:29:43.757Z,0
2019-01-23T02:30:43.766Z,0
2019-01-23T02:31:43.524Z,0
2019-01-23T02:32:43.243Z,0
2019-01-23T02:33:43.210Z,0
2019-01-23T02:34:43.443Z,0
2019-01-23T02:35:43.434Z,0
2019-01-23T02:36:43.418Z,0
2019-01-23T02:37:43.421Z,0
2019-01-23T02:38:43.643Z,0
2019-01-23T02:39:43.132Z,0
2019-01-23T02:40:43.133Z,0
2019-01-23T02:41:43.603Z,0
2019-01-23T02:42:43.341Z,0
2019-01-23T02:43:43.323Z,0
2019-01-23T02:44:43.334Z,0
2019-01-23T02:45:43.042Z,0
2019-01-23T02:46:43.338Z,0
2019-01-23T02:47:43.264Z,0
2019-01-23T02:48:43.257Z,0
2019-01-23T02:49:43.247Z,0
2019-01-23T02:50:42.978Z,0
2019-01-23T02:51:43.246Z,0
2019-01-23T02:52:43.054Z,0
2019-01-23T02:53:42.936Z,0
2019-01-23T02:54:42.919Z,0
2019-01-23T02:55:43.167Z,0
2019-01-23T02:56:43.389Z,0
2019-01-23T02:57:42.886Z,0
2019-01-23T02:58:43.390Z,0
2019-01-23T02:59:43.361Z,0
2019-01-23T03:00:42.598Z,0
2019-01-23T03:01:42.577Z,0
2019-01-23T03:02:42.580Z,0
2019-01-23T03:03:43.291Z,0
2019-01-23T03:04:43.307Z,0
2019-01-23T03:05:43.278Z,0
2019-01-23T03:06:43.263Z,0
2019-01-23T03:07:42.735Z,0
2019-01-23T03:08:42.781Z,0
2019-01-23T03:09:42.757Z,0
2019-01-23T03:10:42.692Z,0
2019-01-23T03:11:42.961Z,0
2019-01-23T03:12:43.180Z,0
2019-01-23T03:13:43.159Z,0
2019-01-23T03:14:42.901Z,0
2019-01-23T03:15:42.630Z,0
2019-01-23T03:16:43.114Z,0
2019-01-23T03:17:42.608Z,0
2019-01-23T03:18:42.601Z,0
2019-01-23T03:19:42.841Z,0
2019-01-23T03:20:42.558Z,0
2019-01-23T03:21:42.800Z,0
2019-01-23T03:22:42.540Z,0
2019-01-23T03:23:42.778Z,0
2019-01-23T03:24:42.772Z,0
2019-01-23T03:25:42.989Z,0
2019-01-23T03:26:42.757Z,0
2019-01-23T03:27:42.706Z,0
2019-01-23T03:28:42.438Z,0
2019-01-23T03:29:42.692Z,0
2019-01-23T03:30:42.957Z,0
2019-01-23T03:31:42.711Z,0
2019-01-23T03:32:42.424Z,0
2019-01-23T03:33:42.620Z,0
2019-01-23T03:34:42.606Z,0
2019-01-23T03:35:42.355Z,0
2019-01-23T03:36:42.606Z,0
2019-01-23T03:37:42.319Z,0
2019-01-23T03:38:42.546Z,0
2019-01-23T03:39:42.788Z,0
2019-01-23T03:40:42.533Z,0
2019-01-23T03:41:42.511Z,0
2019-01-23T03:42:42.500Z,0
2019-01-23T03:43:42.521Z,0
2019-01-23T03:44:42.227Z,0
2019-01-23T03:45:42.699Z,0
2019-01-23T03:46:42.689Z,0
2019-01-23T03:47:42.413Z,0
2019-01-23T03:48:42.276Z,0
2019-01-23T03:49:42.138Z,0
2019-01-23T03:50:42.408Z,0
2019-01-23T03:51:42.367Z,0
2019-01-23T03:52:42.413Z,0
2019-01-23T03:53:42.097Z,0
2019-01-23T03:54:42.302Z,0
2019-01-23T03:55:42.314Z,0
2019-01-23T03:56:42.278Z,0
2019-01-23T03:57:42.558Z,0
2019-01-23T03:58:42.278Z,0
2019-01-23T03:59:42.488Z,0
2019-01-23T04:00:42.497Z,0
2019-01-23T04:01:42.239Z,0
2019-01-23T04:02:42.430Z,0
2019-01-23T04:03:41.928Z,0
2019-01-23T04:04:42.436Z,0
2019-01-23T04:05:42.412Z,0
2019-01-23T04:06:42.426Z,0
2019-01-23T04:07:42.384Z,0
2019-01-23T04:08:42.120Z,0
2019-01-23T04:09:42.357Z,0
2019-01-23T04:10:42.380Z,0
2019-01-23T04:11:41.930Z,0
2019-01-23T04:12:41.832Z,0
2019-01-23T04:13:42.295Z,0
2019-01-23T04:14:42.052Z,0
2019-01-23T04:15:42.002Z,0
2019-01-23T04:16:42.229Z,0
2019-01-23T04:17:42.230Z,0
2019-01-23T04:18:41.963Z,0
2019-01-23T04:19:42.182Z,0
2019-01-23T04:20:42.193Z,0
2019-01-23T04:21:41.919Z,0
2019-01-23T04:22:41.419Z,0
2019-01-23T04:23:41.893Z,0
2019-01-23T04:24:41.868Z,0
2019-01-23T04:25:41.854Z,0
2019-01-23T04:26:42.091Z,0
2019-01-23T04:27:41.825Z,0
2019-01-23T04:28:41.826Z,0
2019-01-23T04:29:46.880Z,0
2019-01-23T04:30:42.013Z,0
2019-01-23T04:31:41.812Z,0
2019-01-23T04:32:41.755Z,0
2019-01-23T04:33:41.994Z,0
2019-01-23T04:34:41.966Z,0
2019-01-23T04:35:41.971Z,0
2019-01-23T04:36:41.968Z,0
2019-01-23T04:37:42.758Z,0
2019-01-23T04:38:41.930Z,0
2019-01-23T04:39:41.641Z,0
2019-01-23T04:40:41.879Z,0
2019-01-23T04:41:41.365Z,0
2019-01-23T04:42:41.589Z,0
2019-01-23T04:43:41.578Z,0
2019-01-23T04:44:41.573Z,0
2019-01-23T04:45:41.573Z,0
2019-01-23T04:46:41.304Z,0
2019-01-23T04:47:41.763Z,0
2019-01-23T04:48:41.782Z,0
2019-01-23T04:49:42.075Z,0
2019-01-23T04:50:41.475Z,0
2019-01-23T04:51:41.467Z,0
2019-01-23T04:52:41.459Z,0
2019-01-23T04:53:41.174Z,0
2019-01-23T04:54:41.669Z,0
2019-01-23T04:55:41.403Z,0
2019-01-23T04:56:41.141Z,0
2019-01-23T04:57:41.616Z,0
2019-01-23T04:58:41.353Z,0
2019-01-23T04:59:46.758Z,0
2019-01-23T05:00:41.585Z,0
2019-01-23T05:01:41.304Z,0
2019-01-23T05:02:41.546Z,0
2019-01-23T05:03:41.546Z,0
2019-01-23T05:04:41.523Z,0
2019-01-23T05:05:41.507Z,0
2019-01-23T05:06:41.015Z,0
2019-01-23T05:07:40.721Z,0
2019-01-23T05:08:41.455Z,0
2019-01-23T05:09:41.469Z,0
2019-01-23T05:10:41.437Z,0
2019-01-23T05:11:41.418Z,0
2019-01-23T05:12:41.392Z,0
2019-01-23T05:13:41.374Z,0
2019-01-23T05:14:41.365Z,0
2019-01-23T05:15:41.363Z,0
2019-01-23T05:16:41.357Z,0
2019-01-23T05:17:40.812Z,0
2019-01-23T05:18:41.037Z,0
2019-01-23T05:19:41.300Z,0
2019-01-23T05:20:41.255Z,0
2019-01-23T05:21:41.269Z,0
2019-01-23T05:22:41.299Z,0
2019-01-23T05:23:40.963Z,0
2019-01-23T05:24:40.959Z,0
2019-01-23T05:25:40.695Z,0
2019-01-23T05:26:41.690Z,0
2019-01-23T05:27:41.173Z,0
2019-01-23T05:28:41.155Z,0
2019-01-23T05:29:41.144Z,0
2019-01-23T05:30:41.122Z,0
2019-01-23T05:31:40.865Z,0
2019-01-23T05:32:40.845Z,0
2019-01-23T05:33:40.833Z,0
2019-01-23T05:34:41.050Z,0
2019-01-23T05:35:40.799Z,0
2019-01-23T05:36:41.023Z,0
2019-01-23T05:37:40.776Z,0
2019-01-23T05:38:40.743Z,0
2019-01-23T05:39:40.980Z,0
2019-01-23T05:40:40.704Z,0
2019-01-23T05:41:40.708Z,0
2019-01-23T05:42:40.446Z,0
2019-01-23T05:43:40.949Z,0
2019-01-23T05:44:40.906Z,0
2019-01-23T05:45:40.916Z,0
2019-01-23T05:46:40.643Z,0
2019-01-23T05:47:40.845Z,0
2019-01-23T05:48:40.347Z,0
2019-01-23T05:49:40.582Z,0
2019-01-23T05:50:40.311Z,0
2019-01-23T05:51:40.809Z,0
2019-01-23T05:52:40.286Z,0
2019-01-23T05:53:40.772Z,0
2019-01-23T05:54:40.762Z,0
2019-01-23T05:55:40.746Z,0
2019-01-23T05:56:40.734Z,0
2019-01-23T05:57:40.454Z,0
2019-01-23T05:58:40.435Z,0
2019-01-23T05:59:40.424Z,0
2019-01-23T06:00:40.658Z,0
2019-01-23T06:01:40.656Z,0
2019-01-23T06:02:40.661Z,0
2019-01-23T06:03:40.182Z,0
2019-01-23T06:04:40.351Z,0
2019-01-23T06:05:40.335Z,0
2019-01-23T06:06:40.582Z,0
2019-01-23T06:07:40.290Z,0
2019-01-23T06:08:40.034Z,0
2019-01-23T06:09:40.524Z,0
2019-01-23T06:10:40.006Z,0
2019-01-23T06:11:40.490Z,0
2019-01-23T06:12:40.221Z,0
2019-01-23T06:13:40.220Z,0
2019-01-23T06:14:40.187Z,0
2019-01-23T06:15:40.429Z,0
2019-01-23T06:16:40.162Z,0
2019-01-23T06:17:40.405Z,0
2019-01-23T06:18:40.385Z,0
2019-01-23T06:19:40.368Z,0
2019-01-23T06:20:40.142Z,0
2019-01-23T06:21:40.102Z,0
2019-01-23T06:22:40.083Z,0
2019-01-23T06:23:40.081Z,0
2019-01-23T06:24:40.034Z,0
2019-01-23T06:25:40.275Z,0
2019-01-23T06:26:40.035Z,0
2019-01-23T06:27:40.243Z,0
2019-01-23T06:28:39.991Z,0
2019-01-23T06:29:40.238Z,0
2019-01-23T06:30:40.200Z,0
2019-01-23T06:31:40.178Z,0
2019-01-23T06:32:40.187Z,0
2019-01-23T06:33:39.983Z,4
2019-01-23T06:34:39.640Z,4
2019-01-23T06:35:39.885Z,4
2019-01-23T06:36:39.361Z,0
2019-01-23T06:37:39.848Z,4
2019-01-23T06:38:39.840Z,4
2019-01-23T06:39:40.078Z,4
2019-01-23T06:40:39.302Z,4
2019-01-23T06:41:39.793Z,4
2019-01-23T06:42:39.764Z,8
2019-01-23T06:43:39.755Z,8
2019-01-23T06:44:39.999Z,12
2019-01-23T06:45:39.724Z,16
2019-01-23T06:46:39.466Z,16
2019-01-23T06:47:39.704Z,20
2019-01-23T06:48:39.688Z,20
2019-01-23T06:49:39.673Z,24
2019-01-23T06:50:39.415Z,28
2019-01-23T06:51:39.893Z,36
2019-01-23T06:52:39.864Z,36
2019-01-23T06:53:39.875Z,44
2019-01-23T06:54:39.585Z,48
2019-01-23T06:55:39.321Z,56
2019-01-23T06:56:39.337Z,64
2019-01-23T06:57:39.530Z,72
2019-01-23T06:58:39.312Z,80
2019-01-23T06:59:39.018Z,92
2019-01-23T07:00:39.489Z,100
2019-01-23T07:01:39.731Z,116
2019-01-23T07:02:39.199Z,124
2019-01-23T07:03:39.197Z,140
2019-01-23T07:04:39.443Z,152
2019-01-23T07:05:39.189Z,164
2019-01-23T07:06:39.404Z,180
2019-01-23T07:07:39.383Z,196
2019-01-23T07:08:38.879Z,212
2019-01-23T07:09:39.626Z,232
2019-01-23T07:10:39.342Z,248
2019-01-23T07:11:39.568Z,272
2019-01-23T07:12:39.325Z,288
2019-01-23T07:13:39.305Z,308
2019-01-23T07:14:39.562Z,332
2019-01-23T07:15:39.015Z,356
2019-01-23T07:16:39.028Z,380
2019-01-23T07:17:39.493Z,404
2019-01-23T07:18:38.967Z,432
2019-01-23T07:19:39.461Z,452
2019-01-23T07:20:39.448Z,480
2019-01-23T07:21:38.706Z,508
2019-01-23T07:22:39.162Z,536
2019-01-23T07:23:39.388Z,568
2019-01-23T07:24:39.380Z,592
2019-01-23T07:25:38.867Z,624
2019-01-23T07:26:39.117Z,652
2019-01-23T07:27:39.326Z,684
2019-01-23T07:28:39.331Z,716
2019-01-23T07:29:39.064Z,748
2019-01-23T07:30:38.785Z,784
2019-01-23T07:31:39.027Z,816
2019-01-23T07:32:39.255Z,852
2019-01-23T07:33:38.745Z,884
2019-01-23T07:34:39.229Z,928
2019-01-23T07:35:38.722Z,968
2019-01-23T07:36:38.961Z,1008
2019-01-23T07:37:39.189Z,1044
2019-01-23T07:38:38.914Z,1080
2019-01-23T07:39:38.900Z,1112
2019-01-23T07:40:39.138Z,1144
2019-01-23T07:41:38.876Z,1180
2019-01-23T07:42:38.854Z,1220
2019-01-23T07:43:38.830Z,1268
2019-01-23T07:44:38.837Z,1316
2019-01-23T07:45:38.589Z,1380
2019-01-23T07:46:38.545Z,1432
2019-01-23T07:47:38.795Z,1468
2019-01-23T07:48:38.777Z,1500
2019-01-23T07:49:39.026Z,1516
2019-01-23T07:50:38.741Z,1524
2019-01-23T07:51:38.475Z,1540
2019-01-23T07:52:38.714Z,1552
2019-01-23T07:53:38.707Z,1560
2019-01-23T07:54:38.691Z,1592
2019-01-23T07:55:38.418Z,1648
2019-01-23T07:56:38.895Z,1712
2019-01-23T07:57:38.383Z,1788
2019-01-23T07:58:38.618Z,1860
2019-01-23T07:59:38.382Z,1932
2019-01-23T08:00:38.450Z,2012
2019-01-23T08:01:38.688Z,2084
2019-01-23T08:02:38.839Z,2156
2019-01-23T08:03:38.781Z,2248
2019-01-23T08:04:38.041Z,2344
2019-01-23T08:05:38.260Z,2424
2019-01-23T08:06:38.511Z,2480
2019-01-23T08:07:38.523Z,2528
2019-01-23T08:08:37.987Z,2564
2019-01-23T08:09:38.461Z,2620
2019-01-23T08:10:38.455Z,2660
2019-01-23T08:11:38.672Z,2708
2019-01-23T08:12:38.979Z,2740
2019-01-23T08:13:38.151Z,2824
2019-01-23T08:14:38.634Z,2888
2019-01-23T08:15:38.621Z,2936
2019-01-23T08:16:38.113Z,2980
2019-01-23T08:17:39.895Z,3024
2019-01-23T08:18:38.076Z,3048
2019-01-23T08:19:38.055Z,3084
2019-01-23T08:20:38.301Z,3128
2019-01-23T08:21:38.550Z,3176
2019-01-23T08:22:38.292Z,3228
2019-01-23T08:23:38.260Z,3276
2019-01-23T08:24:38.005Z,3304
2019-01-23T08:25:38.478Z,3336
2019-01-23T08:26:38.495Z,3364
2019-01-23T08:27:38.501Z,3400
2019-01-23T08:28:38.205Z,3440
2019-01-23T08:29:38.303Z,3472
2019-01-23T08:30:45.540Z,3508
2019-01-23T08:31:38.149Z,3540
2019-01-23T08:32:38.135Z,3588
2019-01-23T08:33:38.118Z,3620
2019-01-23T08:34:38.356Z,3640
2019-01-23T08:35:37.850Z,3656
2019-01-23T08:36:38.327Z,3692
2019-01-23T08:37:38.330Z,3744
2019-01-23T08:38:38.308Z,3784
2019-01-23T08:39:38.298Z,3792
2019-01-23T08:40:38.029Z,3796
2019-01-23T08:41:38.250Z,3804
2019-01-23T08:42:38.006Z,3828
2019-01-23T08:43:37.988Z,3836
2019-01-23T08:44:37.499Z,3828
2019-01-23T08:45:37.736Z,3868
2019-01-23T08:46:37.935Z,3892
2019-01-23T08:47:38.171Z,3916
2019-01-23T08:48:37.915Z,3952
2019-01-23T08:49:37.922Z,3980
2019-01-23T08:50:37.639Z,3996
2019-01-23T08:51:37.423Z,4016
2019-01-23T08:52:37.644Z,4044
2019-01-23T08:53:37.849Z,4080
2019-01-23T08:54:37.325Z,4112
2019-01-23T08:55:37.863Z,4132
2019-01-23T08:56:37.548Z,4156
2019-01-23T08:57:37.794Z,4164
2019-01-23T08:58:37.546Z,4204
2019-01-23T08:59:38.020Z,4212
2019-01-23T09:00:45.526Z,4228
2019-01-23T09:01:37.755Z,4236
2019-01-23T09:02:37.995Z,4260
2019-01-23T09:03:37.477Z,4288
2019-01-23T09:04:37.698Z,4296
2019-01-23T09:05:37.436Z,4292
2019-01-23T09:06:37.701Z,4332
2019-01-23T09:07:37.687Z,4388
2019-01-23T09:08:44.281Z,4484
2019-01-23T09:09:37.919Z,4544
2019-01-23T09:10:37.650Z,4584
2019-01-23T09:11:37.887Z,4616
2019-01-23T09:12:37.377Z,4632
2019-01-23T09:13:37.609Z,4636
2019-01-23T09:14:37.639Z,4656
2019-01-23T09:15:37.835Z,4692
2019-01-23T09:16:37.316Z,4716
2019-01-23T09:17:37.326Z,4732
2019-01-23T09:18:37.275Z,4780
2019-01-23T09:19:37.792Z,4824
2019-01-23T09:20:37.780Z,4856
2019-01-23T09:21:37.761Z,4856
2019-01-23T09:22:37.488Z,4896
2019-01-23T09:23:37.714Z,4940
2019-01-23T09:24:37.194Z,4972
2019-01-23T09:25:37.714Z,4996
2019-01-23T09:26:37.412Z,5008
2019-01-23T09:27:37.761Z,5044
2019-01-23T09:28:37.658Z,4948
2019-01-23T09:29:37.401Z,5028
2019-01-23T09:30:37.370Z,5080
2019-01-23T09:31:37.108Z,5088
2019-01-23T09:32:37.339Z,5064
2019-01-23T09:33:37.075Z,5072
2019-01-23T09:34:37.559Z,5104
2019-01-23T09:35:37.549Z,5164
2019-01-23T09:36:37.036Z,5204
2019-01-23T09:37:37.718Z,5256
2019-01-23T09:38:37.499Z,5260
2019-01-23T09:39:37.262Z,5280
2019-01-23T09:40:37.251Z,5288
2019-01-23T09:41:37.223Z,5304
2019-01-23T09:42:37.209Z,5340
2019-01-23T09:43:36.959Z,5356
2019-01-23T09:44:37.185Z,5384
2019-01-23T09:45:36.953Z,5384
2019-01-23T09:46:37.409Z,5360
2019-01-23T09:47:37.397Z,5316
2019-01-23T09:48:37.131Z,5344
2019-01-23T09:49:36.882Z,5400
2019-01-23T09:50:37.103Z,5392
2019-01-23T09:51:37.099Z,5412
2019-01-23T09:52:37.350Z,5444
2019-01-23T09:53:36.813Z,5444
2019-01-23T09:54:37.318Z,5432
2019-01-23T09:55:37.050Z,5432
2019-01-23T09:56:36.534Z,5412
2019-01-23T09:57:37.013Z,5420
2019-01-23T09:58:37.002Z,5448
2019-01-23T09:59:37.271Z,5464
2019-01-23T10:00:38.893Z,5484
2019-01-23T10:01:36.974Z,5492
2019-01-23T10:02:37.220Z,5516
2019-01-23T10:03:38.079Z,5528
2019-01-23T10:04:36.940Z,5556
2019-01-23T10:05:36.937Z,5596
2019-01-23T10:06:36.677Z,5624
2019-01-23T10:07:37.152Z,5664
2019-01-23T10:08:36.876Z,5696
2019-01-23T10:09:36.869Z,5704
2019-01-23T10:10:37.109Z,5720
2019-01-23T10:11:36.614Z,5740
2019-01-23T10:12:36.851Z,5776
2019-01-23T10:13:36.579Z,5796
2019-01-23T10:14:36.587Z,5784
2019-01-23T10:15:36.809Z,5752
2019-01-23T10:16:36.792Z,5752
2019-01-23T10:17:37.498Z,5528
2019-01-23T10:18:36.553Z,5080
2019-01-23T10:19:36.770Z,5000
2019-01-23T10:20:36.753Z,5276
2019-01-23T10:21:36.749Z,5480
2019-01-23T10:22:36.729Z,5656
2019-01-23T10:23:36.726Z,5836
2019-01-23T10:24:42.722Z,5904
2019-01-23T10:25:36.184Z,5916
2019-01-23T10:26:36.656Z,5944
2019-01-23T10:27:36.401Z,5936
2019-01-23T10:28:36.895Z,5940
2019-01-23T10:29:36.649Z,5936
2019-01-23T10:30:36.620Z,5904
2019-01-23T10:31:36.891Z,5812
2019-01-23T10:32:36.354Z,5496
2019-01-23T10:33:36.826Z,5256
2019-01-23T10:34:37.243Z,5232
2019-01-23T10:35:36.802Z,4968
2019-01-23T10:36:36.550Z,5008
2019-01-23T10:37:36.787Z,5584
2019-01-23T10:38:36.776Z,5640
2019-01-23T10:39:36.520Z,5688
2019-01-23T10:40:35.989Z,5680
2019-01-23T10:41:36.228Z,5616
2019-01-23T10:42:36.244Z,5584
2019-01-23T10:43:35.981Z,5760
2019-01-23T10:44:36.579Z,5820
2019-01-23T10:45:36.434Z,5840
2019-01-23T10:46:36.426Z,6016
2019-01-23T10:47:36.159Z,6100
2019-01-23T10:48:42.587Z,6180
2019-01-23T10:49:36.393Z,6208
2019-01-23T10:50:36.615Z,6192
2019-01-23T10:51:36.376Z,6196
2019-01-23T10:52:36.342Z,6180
2019-01-23T10:53:36.363Z,6188
2019-01-23T10:54:36.575Z,6216
2019-01-23T10:55:36.328Z,6268
2019-01-23T10:56:36.333Z,6312
2019-01-23T10:57:36.573Z,6380
2019-01-23T10:58:36.532Z,6408
2019-01-23T10:59:36.638Z,6468
2019-01-23T11:00:36.507Z,6512
2019-01-23T11:01:36.009Z,6584
2019-01-23T11:02:36.485Z,6700
2019-01-23T11:03:35.996Z,6572
2019-01-23T11:04:36.550Z,6832
2019-01-23T11:05:36.504Z,6940
2019-01-23T11:06:36.628Z,6672
2019-01-23T11:07:36.181Z,6464
2019-01-23T11:08:36.433Z,6388
2019-01-23T11:09:36.573Z,6476
2019-01-23T11:10:36.166Z,6500
2019-01-23T11:11:36.374Z,6580
2019-01-23T11:12:35.863Z,6772
2019-01-23T11:13:36.345Z,6900
2019-01-23T11:14:36.092Z,7084
2019-01-23T11:15:36.355Z,7292
2019-01-23T11:16:36.079Z,7516
2019-01-23T11:17:36.315Z,7352
2019-01-23T11:18:36.063Z,7108
2019-01-23T11:19:36.036Z,7352
2019-01-23T11:20:36.036Z,7424
2019-01-23T11:21:35.794Z,7548
2019-01-23T11:22:35.762Z,7708
2019-01-23T11:23:36.003Z,7888
2019-01-23T11:24:36.004Z,7736
2019-01-23T11:25:35.981Z,7324
2019-01-23T11:26:35.726Z,6836
2019-01-23T11:27:36.198Z,6556
2019-01-23T11:28:35.953Z,6440
2019-01-23T11:29:35.699Z,6392
2019-01-23T11:30:36.235Z,6308
2019-01-23T11:31:35.675Z,6308
2019-01-23T11:32:35.912Z,6416
2019-01-23T11:33:36.155Z,6504
2019-01-23T11:34:35.887Z,6592
2019-01-23T11:35:36.154Z,6680
2019-01-23T11:36:36.118Z,6748
2019-01-23T11:37:36.101Z,6784
2019-01-23T11:38:35.851Z,6808
2019-01-23T11:39:35.857Z,6820
2019-01-23T11:40:35.849Z,6820
2019-01-23T11:41:35.580Z,6784
2019-01-23T11:42:35.808Z,6696
2019-01-23T11:43:35.584Z,6560
2019-01-23T11:44:36.052Z,6392
2019-01-23T11:45:35.820Z,6236
2019-01-23T11:46:35.778Z,6068
2019-01-23T11:47:35.802Z,5900
2019-01-23T11:48:36.011Z,5716
2019-01-23T11:49:35.992Z,5544
2019-01-23T11:50:35.741Z,5420
2019-01-23T11:51:36.334Z,5396
2019-01-23T11:52:35.469Z,5408
2019-01-23T11:53:35.714Z,5396
2019-01-23T11:54:35.466Z,5412
2019-01-23T11:55:35.721Z,5492
2019-01-23T11:56:35.931Z,5572
2019-01-23T11:57:35.927Z,5600
2019-01-23T11:58:35.918Z,5584
2019-01-23T11:59:35.904Z,5564
2019-01-23T12:00:35.649Z,5544
2019-01-23T12:01:35.863Z,5560
2019-01-23T12:02:37.943Z,5600
2019-01-23T12:03:35.382Z,5624
2019-01-23T12:04:35.865Z,5644
2019-01-23T12:05:35.847Z,5640
2019-01-23T12:06:35.589Z,5616
2019-01-23T12:07:35.832Z,5592
2019-01-23T12:08:35.566Z,5572
2019-01-23T12:09:35.562Z,5560
2019-01-23T12:10:35.799Z,5548
2019-01-23T12:11:35.549Z,5500
2019-01-23T12:12:35.041Z,5420
2019-01-23T12:13:35.534Z,5392
2019-01-23T12:14:35.769Z,5340
2019-01-23T12:15:40.760Z,5336
2019-01-23T12:16:35.737Z,5320
2019-01-23T12:17:35.718Z,5256
2019-01-23T12:18:35.713Z,5132
2019-01-23T12:19:35.221Z,4984
2019-01-23T12:20:35.703Z,4832
2019-01-23T12:21:35.693Z,4740
2019-01-23T12:22:35.431Z,4724
2019-01-23T12:23:35.667Z,4736
2019-01-23T12:24:36.282Z,4716
2019-01-23T12:25:35.156Z,4648
2019-01-23T12:26:35.650Z,4568
2019-01-23T12:27:35.369Z,4500
2019-01-23T12:28:35.608Z,4424
2019-01-23T12:29:35.634Z,4364
2019-01-23T12:30:35.594Z,4320
2019-01-23T12:31:41.838Z,4260
2019-01-23T12:32:35.325Z,4232
2019-01-23T12:33:35.330Z,4236
2019-01-23T12:34:35.070Z,4268
2019-01-23T12:35:35.280Z,4320
2019-01-23T12:36:35.534Z,4388
2019-01-23T12:37:35.276Z,4472
2019-01-23T12:38:35.496Z,4552
2019-01-23T12:39:35.253Z,4580
2019-01-23T12:40:35.503Z,4568
2019-01-23T12:41:35.482Z,4572
2019-01-23T12:42:35.210Z,4592
2019-01-23T12:43:35.450Z,4616
2019-01-23T12:44:34.951Z,4608
2019-01-23T12:45:35.413Z,4572
2019-01-23T12:46:35.435Z,4512
2019-01-23T12:47:35.445Z,4456
2019-01-23T12:48:35.403Z,4412
2019-01-23T12:49:35.125Z,4392
2019-01-23T12:50:35.128Z,4376
2019-01-23T12:51:35.347Z,4344
2019-01-23T12:52:35.074Z,4320
2019-01-23T12:53:35.333Z,4312
2019-01-23T12:54:35.052Z,4300
2019-01-23T12:55:35.499Z,4280
2019-01-23T12:56:35.027Z,4252
2019-01-23T12:57:34.769Z,4216
2019-01-23T12:58:35.012Z,4196
2019-01-23T12:59:35.283Z,4172
2019-01-23T13:00:34.744Z,4140
2019-01-23T13:01:41.751Z,4100
2019-01-23T13:02:34.470Z,4016
2019-01-23T13:03:35.248Z,3904
2019-01-23T13:04:34.683Z,3824
2019-01-23T13:05:34.941Z,3784
2019-01-23T13:06:35.156Z,3756
2019-01-23T13:07:38.306Z,3708
2019-01-23T13:08:34.881Z,3668
2019-01-23T13:09:35.125Z,3652
2019-01-23T13:10:35.168Z,3664
2019-01-23T13:11:34.358Z,3684
2019-01-23T13:12:35.086Z,3700
2019-01-23T13:13:35.103Z,3712
2019-01-23T13:14:34.847Z,3724
2019-01-23T13:15:34.570Z,3724
2019-01-23T13:16:35.060Z,3716
2019-01-23T13:17:35.538Z,3692
2019-01-23T13:18:34.543Z,3684
2019-01-23T13:19:35.145Z,3680
2019-01-23T13:20:34.771Z,3672
2019-01-23T13:21:34.736Z,3656
2019-01-23T13:22:36.126Z,3628
2019-01-23T13:23:34.482Z,3572
2019-01-23T13:24:34.737Z,3488
2019-01-23T13:25:36.377Z,3364
2019-01-23T13:26:34.695Z,3260
2019-01-23T13:27:34.695Z,3164
2019-01-23T13:28:34.225Z,3096
2019-01-23T13:29:34.651Z,3048
2019-01-23T13:30:34.438Z,3000
2019-01-23T13:31:34.424Z,2916
2019-01-23T13:32:34.626Z,2800
2019-01-23T13:33:34.593Z,2716
2019-01-23T13:34:34.592Z,2668
2019-01-23T13:35:34.836Z,2664
2019-01-23T13:36:34.345Z,2716
2019-01-23T13:37:34.580Z,2828
2019-01-23T13:38:34.289Z,2964
2019-01-23T13:39:34.315Z,3096
2019-01-23T13:40:34.628Z,3200
2019-01-23T13:41:34.524Z,3276
2019-01-23T13:42:34.510Z,3364
2019-01-23T13:43:34.235Z,3420
2019-01-23T13:44:34.743Z,3436
2019-01-23T13:45:34.743Z,3440
2019-01-23T13:46:34.206Z,3480
2019-01-23T13:47:34.203Z,3512
2019-01-23T13:48:33.932Z,3532
2019-01-23T13:49:34.426Z,3552
2019-01-23T13:50:33.896Z,3576
2019-01-23T13:51:34.656Z,3608
2019-01-23T13:52:34.128Z,3676
2019-01-23T13:53:34.632Z,3744
2019-01-23T13:54:34.358Z,3812
2019-01-23T13:55:34.082Z,3816
2019-01-23T13:56:34.577Z,3780
2019-01-23T13:57:34.096Z,3764
2019-01-23T13:58:34.323Z,3812
2019-01-23T13:59:33.789Z,3900
2019-01-23T14:00:34.543Z,3952
2019-01-23T14:01:34.015Z,3956